- বাংলা English

 ****Phone:+880 2 9135742, 9123838, 9141437 | Fax: +880 2 8118230, 9119230, 9103908 | E-mail: info@bmd.gov.bd , swc@bmd.gov.bd   | IVR: 1090 |

TAF

TAF VGHS 292300Z 3000/3106 18006KT 3500 HZ SCT012 BKN100
  TEMPO 3000/3003 27025KT 1500 RA/TSRA BKN007 FEW025CB OVC080
  BECMG 3005/3006 19010KT 4000 HZ SCT015 SCT100
  TEMPO 3007/3012 27020G30KT 1500 RA/TSRA BKN007 FEW025CB OVC080
  BECMG 3014/3016 18007KT 4000 HZ SCT015 BKN100
  TEMPO 3020/3106 27025KT 2000 RA/TSRA BKN007 FEW025CB BKN090=

TAF VGSY 291000Z 2912/3018 24005KT 4500 HZ SCT015 BKN100
BECMG 2918/2920 05004KT 3500 HZ SCT015 BKN100
BECMG 2923/3001 00000KT 2500 BR SCT012 BKN100
BECMG 3003/3005 10005KT 3500 HZ SCT015
TEMPO 2912/3018 31025G35KT 1500 TSRA/RA BKN006 FEW025CB OVC080=

TAF VGEG 292300Z 3000/3106 08004KT 3000 HZ SCT015
  BECMG 3004/3006 23010KT 4500 HZ SCT018 SCT120
  TEMPO 3010/3016 28020G30KT 2000 RA/TSRA SCT007 FEW025CB BKN090
  BECMG 3018/3020 18006KT 3500 HZ SCT016
  BECMG 3023/3101 08004KT 3000 HZ SCT015
  BECMG 3103/3105 23010KT 4500 HZ FEW018=